sensor_id;sensor_type;location;lat;lon;timestamp;P1;durP1;ratioP1;P2;durP2;ratioP2
61840;SDS011;47773;53.174;6.614;2023-04-01T00:02:07;6.55;;;4.13;;
61840;SDS011;47773;53.174;6.614;2023-04-01T00:04:33;4.82;;;3.97;;
61840;SDS011;47773;53.174;6.614;2023-04-01T00:06:59;5.28;;;3.97;;
61840;SDS011;47773;53.174;6.614;2023-04-01T00:09:25;5.35;;;4.03;;
61840;SDS011;47773;53.174;6.614;2023-04-01T00:11:51;6.63;;;4.22;;
61840;SDS011;47773;53.174;6.614;2023-04-01T00:14:16;10.32;;;4.53;;
61840;SDS011;47773;53.174;6.614;2023-04-01T00:16:42;8.20;;;4.82;;
61840;SDS011;47773;53.174;6.614;2023-04-01T00:19:08;7.68;;;4.72;;
61840;SDS011;47773;53.174;6.614;2023-04-01T00:21:34;5.65;;;4.25;;
61840;SDS011;47773;53.174;6.614;2023-04-01T00:24:00;6.10;;;4.32;;
61840;SDS011;47773;53.174;6.614;2023-04-01T00:26:26;10.20;;;4.13;;
61840;SDS011;47773;53.174;6.614;2023-04-01T00:28:52;5.80;;;4.40;;
61840;SDS011;47773;53.174;6.614;2023-04-01T00:31:17;7.22;;;4.78;;
61840;SDS011;47773;53.174;6.614;2023-04-01T00:33:43;6.32;;;4.18;;
61840;SDS011;47773;53.174;6.614;2023-04-01T00:36:12;6.82;;;4.40;;
61840;SDS011;47773;53.174;6.614;2023-04-01T00:38:40;7.90;;;5.13;;
61840;SDS011;47773;53.174;6.614;2023-04-01T00:41:06;6.93;;;4.90;;
61840;SDS011;47773;53.174;6.614;2023-04-01T00:43:32;7.25;;;5.35;;
61840;SDS011;47773;53.174;6.614;2023-04-01T00:45:58;7.70;;;5.00;;
61840;SDS011;47773;53.174;6.614;2023-04-01T00:48:28;6.82;;;5.00;;
61840;SDS011;47773;53.174;6.614;2023-04-01T00:51:04;7.82;;;4.82;;
61840;SDS011;47773;53.174;6.614;2023-04-01T00:53:34;6.03;;;4.47;;
61840;SDS011;47773;53.174;6.614;2023-04-01T00:56:04;5.55;;;4.25;;
61840;SDS011;47773;53.174;6.614;2023-04-01T00:58:36;9.23;;;4.88;;
61840;SDS011;47773;53.174;6.614;2023-04-01T01:01:06;6.68;;;5.03;;
61840;SDS011;47773;53.174;6.614;2023-04-01T01:03:34;6.50;;;4.97;;
61840;SDS011;47773;53.174;6.614;2023-04-01T01:11:48;7.95;;;5.60;;
61840;SDS011;47773;53.174;6.614;2023-04-01T01:16:46;7.05;;;5.18;;
61840;SDS011;47773;53.174;6.614;2023-04-01T01:19:44;9.48;;;5.70;;
61840;SDS011;47773;53.174;6.614;2023-04-01T01:31:34;7.78;;;5.10;;
61840;SDS011;47773;53.174;6.614;2023-04-01T01:33:49;7.68;;;5.75;;
61840;SDS011;47773;53.174;6.614;2023-04-01T01:36:28;7.60;;;5.40;;
61840;SDS011;47773;53.174;6.614;2023-04-01T01:39:00;8.75;;;5.95;;
61840;SDS011;47773;53.174;6.614;2023-04-01T01:41:28;8.50;;;5.70;;
61840;SDS011;47773;53.174;6.614;2023-04-01T01:43:55;7.80;;;6.07;;
61840;SDS011;47773;53.174;6.614;2023-04-01T01:46:24;8.85;;;5.43;;
61840;SDS011;47773;53.174;6.614;2023-04-01T01:48:53;8.38;;;6.00;;
61840;SDS011;47773;53.174;6.614;2023-04-01T01:51:21;7.20;;;5.63;;
61840;SDS011;47773;53.174;6.614;2023-04-01T01:53:47;9.63;;;5.82;;
61840;SDS011;47773;53.174;6.614;2023-04-01T01:56:13;9.02;;;5.35;;
61840;SDS011;47773;53.174;6.614;2023-04-01T01:58:40;7.45;;;5.75;;
61840;SDS011;47773;53.174;6.614;2023-04-01T02:01:11;8.70;;;5.45;;
61840;SDS011;47773;53.174;6.614;2023-04-01T02:03:44;7.10;;;5.07;;
61840;SDS011;47773;53.174;6.614;2023-04-01T02:06:11;6.82;;;5.43;;
61840;SDS011;47773;53.174;6.614;2023-04-01T02:11:38;9.63;;;5.47;;
61840;SDS011;47773;53.174;6.614;2023-04-01T02:14:10;10.57;;;6.07;;
61840;SDS011;47773;53.174;6.614;2023-04-01T02:16:45;8.27;;;5.40;;
61840;SDS011;47773;53.174;6.614;2023-04-01T02:19:17;7.85;;;5.28;;
61840;SDS011;47773;53.174;6.614;2023-04-01T02:21:48;7.43;;;5.85;;
61840;SDS011;47773;53.174;6.614;2023-04-01T02:24:18;9.40;;;6.18;;
61840;SDS011;47773;53.174;6.614;2023-04-01T02:26:47;8.95;;;5.93;;
61840;SDS011;47773;53.174;6.614;2023-04-01T02:29:15;10.65;;;6.28;;
61840;SDS011;47773;53.174;6.614;2023-04-01T02:31:45;10.88;;;5.95;;
61840;SDS011;47773;53.174;6.614;2023-04-01T02:34:11;10.57;;;6.32;;
61840;SDS011;47773;53.174;6.614;2023-04-01T02:36:38;11.02;;;6.13;;
61840;SDS011;47773;53.174;6.614;2023-04-01T02:39:04;9.63;;;6.45;;
61840;SDS011;47773;53.174;6.614;2023-04-01T02:41:31;10.13;;;6.32;;
61840;SDS011;47773;53.174;6.614;2023-04-01T02:44:03;10.02;;;6.00;;
61840;SDS011;47773;53.174;6.614;2023-04-01T02:46:29;9.48;;;5.95;;
61840;SDS011;47773;53.174;6.614;2023-04-01T02:48:55;8.73;;;6.50;;
61840;SDS011;47773;53.174;6.614;2023-04-01T02:51:20;10.10;;;6.50;;
61840;SDS011;47773;53.174;6.614;2023-04-01T02:53:46;10.98;;;6.53;;
61840;SDS011;47773;53.174;6.614;2023-04-01T02:56:11;8.32;;;6.18;;
61840;SDS011;47773;53.174;6.614;2023-04-01T02:58:37;8.93;;;6.38;;
61840;SDS011;47773;53.174;6.614;2023-04-01T03:01:03;11.50;;;6.05;;
61840;SDS011;47773;53.174;6.614;2023-04-01T03:03:28;9.02;;;6.50;;
61840;SDS011;47773;53.174;6.614;2023-04-01T03:05:54;9.00;;;6.20;;
61840;SDS011;47773;53.174;6.614;2023-04-01T03:08:25;8.95;;;6.20;;
61840;SDS011;47773;53.174;6.614;2023-04-01T03:10:50;8.70;;;6.32;;
61840;SDS011;47773;53.174;6.614;2023-04-01T03:13:16;8.30;;;5.95;;
61840;SDS011;47773;53.174;6.614;2023-04-01T03:15:41;9.30;;;6.50;;
61840;SDS011;47773;53.174;6.614;2023-04-01T03:18:07;10.60;;;7.40;;
61840;SDS011;47773;53.174;6.614;2023-04-01T03:20:33;10.65;;;6.30;;
61840;SDS011;47773;53.174;6.614;2023-04-01T03:22:58;10.32;;;6.65;;
61840;SDS011;47773;53.174;6.614;2023-04-01T03:25:24;11.77;;;7.25;;
61840;SDS011;47773;53.174;6.614;2023-04-01T03:27:50;13.52;;;7.15;;
61840;SDS011;47773;53.174;6.614;2023-04-01T03:30:15;10.80;;;7.43;;
61840;SDS011;47773;53.174;6.614;2023-04-01T03:32:41;10.73;;;7.85;;
61840;SDS011;47773;53.174;6.614;2023-04-01T03:35:07;12.77;;;8.00;;
61840;SDS011;47773;53.174;6.614;2023-04-01T03:37:34;11.02;;;8.10;;
61840;SDS011;47773;53.174;6.614;2023-04-01T03:40:00;13.57;;;8.45;;
61840;SDS011;47773;53.174;6.614;2023-04-01T03:42:25;13.23;;;8.55;;
61840;SDS011;47773;53.174;6.614;2023-04-01T03:44:51;14.82;;;8.57;;
61840;SDS011;47773;53.174;6.614;2023-04-01T03:47:17;12.00;;;8.30;;
61840;SDS011;47773;53.174;6.614;2023-04-01T03:49:42;11.90;;;8.52;;
61840;SDS011;47773;53.174;6.614;2023-04-01T03:52:09;14.38;;;9.15;;
61840;SDS011;47773;53.174;6.614;2023-04-01T03:54:35;15.57;;;8.63;;
61840;SDS011;47773;53.174;6.614;2023-04-01T03:57:01;17.67;;;8.88;;
61840;SDS011;47773;53.174;6.614;2023-04-01T03:59:27;13.75;;;9.20;;
61840;SDS011;47773;53.174;6.614;2023-04-01T04:01:52;15.88;;;8.38;;
61840;SDS011;47773;53.174;6.614;2023-04-01T04:04:18;13.95;;;9.25;;
61840;SDS011;47773;53.174;6.614;2023-04-01T04:06:44;14.88;;;9.90;;
61840;SDS011;47773;53.174;6.614;2023-04-01T04:09:09;13.18;;;9.27;;
61840;SDS011;47773;53.174;6.614;2023-04-01T04:11:35;13.05;;;9.13;;
61840;SDS011;47773;53.174;6.614;2023-04-01T04:14:01;16.17;;;10.40;;
61840;SDS011;47773;53.174;6.614;2023-04-01T04:16:27;15.18;;;9.23;;
61840;SDS011;47773;53.174;6.614;2023-04-01T04:18:52;14.85;;;9.20;;
61840;SDS011;47773;53.174;6.614;2023-04-01T04:21:18;14.48;;;10.07;;
61840;SDS011;47773;53.174;6.614;2023-04-01T04:23:44;12.80;;;9.90;;
61840;SDS011;47773;53.174;6.614;2023-04-01T04:26:11;16.35;;;10.10;;
61840;SDS011;47773;53.174;6.614;2023-04-01T04:28:38;15.43;;;9.88;;
61840;SDS011;47773;53.174;6.614;2023-04-01T04:31:04;13.63;;;9.70;;
61840;SDS011;47773;53.174;6.614;2023-04-01T04:33:31;14.10;;;10.23;;
61840;SDS011;47773;53.174;6.614;2023-04-01T04:35:58;13.40;;;10.00;;
61840;SDS011;47773;53.174;6.614;2023-04-01T04:38:24;13.45;;;10.32;;
61840;SDS011;47773;53.174;6.614;2023-04-01T04:40:51;16.05;;;10.18;;
61840;SDS011;47773;53.174;6.614;2023-04-01T04:43:17;15.88;;;9.68;;
61840;SDS011;47773;53.174;6.614;2023-04-01T04:45:43;15.32;;;10.18;;
61840;SDS011;47773;53.174;6.614;2023-04-01T04:48:12;11.80;;;9.27;;
61840;SDS011;47773;53.174;6.614;2023-04-01T04:50:44;16.67;;;10.38;;
61840;SDS011;47773;53.174;6.614;2023-04-01T04:53:11;12.35;;;9.57;;
61840;SDS011;47773;53.174;6.614;2023-04-01T04:55:37;15.35;;;10.15;;
61840;SDS011;47773;53.174;6.614;2023-04-01T04:58:07;14.77;;;9.98;;
61840;SDS011;47773;53.174;6.614;2023-04-01T05:00:33;12.52;;;9.52;;
61840;SDS011;47773;53.174;6.614;2023-04-01T05:02:58;14.65;;;10.02;;
61840;SDS011;47773;53.174;6.614;2023-04-01T05:05:24;14.88;;;10.70;;
61840;SDS011;47773;53.174;6.614;2023-04-01T05:07:50;13.68;;;10.05;;
61840;SDS011;47773;53.174;6.614;2023-04-01T05:10:16;13.52;;;9.77;;
61840;SDS011;47773;53.174;6.614;2023-04-01T05:12:41;14.10;;;9.73;;
61840;SDS011;47773;53.174;6.614;2023-04-01T05:15:07;17.38;;;10.32;;
61840;SDS011;47773;53.174;6.614;2023-04-01T05:17:33;13.55;;;9.98;;
61840;SDS011;47773;53.174;6.614;2023-04-01T05:20:00;15.45;;;10.38;;
61840;SDS011;47773;53.174;6.614;2023-04-01T05:22:25;13.40;;;9.35;;
61840;SDS011;47773;53.174;6.614;2023-04-01T05:24:51;13.75;;;9.52;;
61840;SDS011;47773;53.174;6.614;2023-04-01T05:27:17;12.32;;;8.80;;
61840;SDS011;47773;53.174;6.614;2023-04-01T05:29:42;13.40;;;9.60;;
61840;SDS011;47773;53.174;6.614;2023-04-01T05:32:08;13.70;;;9.00;;
61840;SDS011;47773;53.174;6.614;2023-04-01T05:34:34;12.73;;;9.40;;
61840;SDS011;47773;53.174;6.614;2023-04-01T05:36:59;13.93;;;9.57;;
61840;SDS011;47773;53.174;6.614;2023-04-01T05:39:25;12.30;;;9.80;;
61840;SDS011;47773;53.174;6.614;2023-04-01T05:41:51;11.75;;;8.77;;
61840;SDS011;47773;53.174;6.614;2023-04-01T05:44:17;12.15;;;8.65;;
61840;SDS011;47773;53.174;6.614;2023-04-01T05:46:43;11.70;;;8.45;;
61840;SDS011;47773;53.174;6.614;2023-04-01T05:49:08;14.23;;;9.32;;
61840;SDS011;47773;53.174;6.614;2023-04-01T05:51:34;12.50;;;8.75;;
61840;SDS011;47773;53.174;6.614;2023-04-01T05:54:00;12.20;;;8.90;;
61840;SDS011;47773;53.174;6.614;2023-04-01T05:56:25;11.50;;;8.57;;
61840;SDS011;47773;53.174;6.614;2023-04-01T05:58:51;11.43;;;8.82;;
61840;SDS011;47773;53.174;6.614;2023-04-01T06:01:19;12.98;;;8.73;;
61840;SDS011;47773;53.174;6.614;2023-04-01T06:03:45;13.25;;;7.78;;
61840;SDS011;47773;53.174;6.614;2023-04-01T06:06:14;9.68;;;7.68;;
61840;SDS011;47773;53.174;6.614;2023-04-01T06:11:16;11.75;;;7.68;;
61840;SDS011;47773;53.174;6.614;2023-04-01T06:19:27;16.15;;;9.80;;
61840;SDS011;47773;53.174;6.614;2023-04-01T06:25:17;16.98;;;10.75;;
61840;SDS011;47773;53.174;6.614;2023-04-01T06:31:05;16.30;;;12.25;;
61840;SDS011;47773;53.174;6.614;2023-04-01T06:36:56;17.20;;;12.65;;
61840;SDS011;47773;53.174;6.614;2023-04-01T06:45:35;19.60;;;13.10;;
61840;SDS011;47773;53.174;6.614;2023-04-01T06:53:35;22.77;;;13.73;;
61840;SDS011;47773;53.174;6.614;2023-04-01T06:56:25;19.92;;;14.32;;
61840;SDS011;47773;53.174;6.614;2023-04-01T06:59:05;23.15;;;16.35;;
61840;SDS011;47773;53.174;6.614;2023-04-01T07:01:45;22.65;;;16.38;;
61840;SDS011;47773;53.174;6.614;2023-04-01T07:07:02;28.25;;;15.15;;
61840;SDS011;47773;53.174;6.614;2023-04-01T07:09:41;35.13;;;22.52;;
61840;SDS011;47773;53.174;6.614;2023-04-01T07:12:21;24.02;;;15.50;;
61840;SDS011;47773;53.174;6.614;2023-04-01T07:15:01;20.02;;;14.35;;
61840;SDS011;47773;53.174;6.614;2023-04-01T07:17:38;40.38;;;23.52;;
61840;SDS011;47773;53.174;6.614;2023-04-01T07:20:15;25.63;;;15.95;;
61840;SDS011;47773;53.174;6.614;2023-04-01T07:22:49;25.90;;;18.13;;
61840;SDS011;47773;53.174;6.614;2023-04-01T07:25:35;20.98;;;15.30;;
61840;SDS011;47773;53.174;6.614;2023-04-01T07:28:04;25.10;;;17.48;;
61840;SDS011;47773;53.174;6.614;2023-04-01T07:30:45;24.42;;;14.27;;
61840;SDS011;47773;53.174;6.614;2023-04-01T07:33:16;20.73;;;13.90;;
61840;SDS011;47773;53.174;6.614;2023-04-01T07:38:20;19.48;;;13.23;;
61840;SDS011;47773;53.174;6.614;2023-04-01T07:48:58;19.30;;;13.38;;
61840;SDS011;47773;53.174;6.614;2023-04-01T07:57:01;17.52;;;12.05;;
61840;SDS011;47773;53.174;6.614;2023-04-01T08:05:49;19.55;;;11.85;;
61840;SDS011;47773;53.174;6.614;2023-04-01T08:08:36;17.90;;;12.38;;
61840;SDS011;47773;53.174;6.614;2023-04-01T08:21:44;16.80;;;11.20;;
61840;SDS011;47773;53.174;6.614;2023-04-01T08:24:25;17.08;;;11.68;;
61840;SDS011;47773;53.174;6.614;2023-04-01T08:26:57;15.38;;;10.70;;
61840;SDS011;47773;53.174;6.614;2023-04-01T08:29:37;17.50;;;10.73;;
61840;SDS011;47773;53.174;6.614;2023-04-01T08:32:11;19.43;;;11.10;;
61840;SDS011;47773;53.174;6.614;2023-04-01T08:34:42;16.75;;;10.85;;
61840;SDS011;47773;53.174;6.614;2023-04-01T08:37:12;14.65;;;9.77;;
61840;SDS011;47773;53.174;6.614;2023-04-01T08:39:58;14.82;;;9.18;;
61840;SDS011;47773;53.174;6.614;2023-04-01T08:45:15;14.35;;;9.40;;
61840;SDS011;47773;53.174;6.614;2023-04-01T08:56:12;17.75;;;10.23;;
61840;SDS011;47773;53.174;6.614;2023-04-01T09:04:32;13.43;;;8.57;;
61840;SDS011;47773;53.174;6.614;2023-04-01T09:12:49;11.05;;;7.60;;
61840;SDS011;47773;53.174;6.614;2023-04-01T09:15:27;10.43;;;5.22;;
61840;SDS011;47773;53.174;6.614;2023-04-01T09:18:29;7.25;;;4.43;;
61840;SDS011;47773;53.174;6.614;2023-04-01T09:21:30;7.57;;;4.13;;
61840;SDS011;47773;53.174;6.614;2023-04-01T09:49:25;5.00;;;3.67;;
61840;SDS011;47773;53.174;6.614;2023-04-01T09:57:19;5.25;;;3.28;;
61840;SDS011;47773;53.174;6.614;2023-04-01T10:05:34;4.32;;;3.00;;
61840;SDS011;47773;53.174;6.614;2023-04-01T10:08:40;4.10;;;2.95;;
61840;SDS011;47773;53.174;6.614;2023-04-01T10:16:44;4.28;;;2.83;;
61840;SDS011;47773;53.174;6.614;2023-04-01T10:35:53;5.00;;;2.33;;
61840;SDS011;47773;53.174;6.614;2023-04-01T10:47:08;5.32;;;2.80;;
61840;SDS011;47773;53.174;6.614;2023-04-01T11:09:25;3.15;;;1.80;;
61840;SDS011;47773;53.174;6.614;2023-04-01T11:12:51;3.90;;;2.42;;
61840;SDS011;47773;53.174;6.614;2023-04-01T11:15:41;3.85;;;2.20;;
61840;SDS011;47773;53.174;6.614;2023-04-01T11:21:12;3.22;;;2.38;;
61840;SDS011;47773;53.174;6.614;2023-04-01T11:24:15;4.85;;;2.60;;
61840;SDS011;47773;53.174;6.614;2023-04-01T11:27:05;4.43;;;2.40;;
61840;SDS011;47773;53.174;6.614;2023-04-01T11:30:02;3.80;;;2.50;;
61840;SDS011;47773;53.174;6.614;2023-04-01T11:32:34;3.95;;;3.10;;
61840;SDS011;47773;53.174;6.614;2023-04-01T11:38:22;3.80;;;2.55;;
61840;SDS011;47773;53.174;6.614;2023-04-01T12:06:18;4.82;;;3.30;;
61840;SDS011;47773;53.174;6.614;2023-04-01T12:09:04;5.32;;;2.78;;
61840;SDS011;47773;53.174;6.614;2023-04-01T12:11:41;3.15;;;2.83;;
61840;SDS011;47773;53.174;6.614;2023-04-01T12:19:48;2.28;;;1.60;;
61840;SDS011;47773;53.174;6.614;2023-04-01T12:30:51;2.78;;;1.98;;
61840;SDS011;47773;53.174;6.614;2023-04-01T12:47:29;2.95;;;2.33;;
61840;SDS011;47773;53.174;6.614;2023-04-01T12:52:49;4.60;;;2.00;;
61840;SDS011;47773;53.174;6.614;2023-04-01T13:03:56;5.70;;;2.38;;
61840;SDS011;47773;53.174;6.614;2023-04-01T13:09:23;3.28;;;2.00;;
61840;SDS011;47773;53.174;6.614;2023-04-01T13:20:15;4.05;;;2.53;;
61840;SDS011;47773;53.174;6.614;2023-04-01T13:23:19;3.33;;;2.50;;
61840;SDS011;47773;53.174;6.614;2023-04-01T13:29:05;2.40;;;1.83;;
61840;SDS011;47773;53.174;6.614;2023-04-01T13:42:13;3.00;;;1.80;;
61840;SDS011;47773;53.174;6.614;2023-04-01T13:44:55;2.03;;;1.52;;
61840;SDS011;47773;53.174;6.614;2023-04-01T13:58:07;2.35;;;1.65;;
61840;SDS011;47773;53.174;6.614;2023-04-01T14:00:56;3.80;;;1.52;;
61840;SDS011;47773;53.174;6.614;2023-04-01T14:03:43;2.83;;;1.60;;
61840;SDS011;47773;53.174;6.614;2023-04-01T14:08:56;3.03;;;1.60;;
61840;SDS011;47773;53.174;6.614;2023-04-01T14:11:38;3.35;;;1.60;;
61840;SDS011;47773;53.174;6.614;2023-04-01T14:44:45;2.78;;;1.38;;
61840;SDS011;47773;53.174;6.614;2023-04-01T14:50:18;3.13;;;1.60;;
61840;SDS011;47773;53.174;6.614;2023-04-01T14:53:13;2.58;;;1.73;;
61840;SDS011;47773;53.174;6.614;2023-04-01T14:56:01;2.28;;;1.48;;
61840;SDS011;47773;53.174;6.614;2023-04-01T14:58:44;3.03;;;1.80;;
61840;SDS011;47773;53.174;6.614;2023-04-01T15:06:41;3.00;;;1.95;;
61840;SDS011;47773;53.174;6.614;2023-04-01T15:15:29;3.22;;;1.55;;
61840;SDS011;47773;53.174;6.614;2023-04-01T15:18:10;2.33;;;1.50;;
61840;SDS011;47773;53.174;6.614;2023-04-01T15:23:24;2.70;;;1.70;;
61840;SDS011;47773;53.174;6.614;2023-04-01T15:37:00;5.00;;;2.30;;
61840;SDS011;47773;53.174;6.614;2023-04-01T15:45:03;3.95;;;2.08;;
61840;SDS011;47773;53.174;6.614;2023-04-01T15:53:23;4.55;;;2.40;;
61840;SDS011;47773;53.174;6.614;2023-04-01T16:01:27;6.03;;;2.85;;
61840;SDS011;47773;53.174;6.614;2023-04-01T16:06:43;6.63;;;3.65;;
61840;SDS011;47773;53.174;6.614;2023-04-01T16:14:54;5.13;;;2.78;;
61840;SDS011;47773;53.174;6.614;2023-04-01T16:17:57;4.68;;;2.83;;
61840;SDS011;47773;53.174;6.614;2023-04-01T16:23:35;9.73;;;6.40;;
61840;SDS011;47773;53.174;6.614;2023-04-01T16:26:08;7.00;;;3.83;;
61840;SDS011;47773;53.174;6.614;2023-04-01T16:31:30;6.05;;;2.92;;
61840;SDS011;47773;53.174;6.614;2023-04-01T16:34:10;9.63;;;3.80;;
61840;SDS011;47773;53.174;6.614;2023-04-01T16:37:00;5.30;;;3.55;;
61840;SDS011;47773;53.174;6.614;2023-04-01T16:47:40;6.63;;;3.30;;
61840;SDS011;47773;53.174;6.614;2023-04-01T16:50:19;6.70;;;3.53;;
61840;SDS011;47773;53.174;6.614;2023-04-01T16:55:32;5.95;;;3.42;;
61840;SDS011;47773;53.174;6.614;2023-04-01T16:58:01;8.00;;;3.72;;
61840;SDS011;47773;53.174;6.614;2023-04-01T17:00:37;7.13;;;3.78;;
61840;SDS011;47773;53.174;6.614;2023-04-01T17:05:38;8.50;;;4.25;;
61840;SDS011;47773;53.174;6.614;2023-04-01T17:16:14;7.38;;;3.97;;
61840;SDS011;47773;53.174;6.614;2023-04-01T17:21:48;10.90;;;4.70;;
61840;SDS011;47773;53.174;6.614;2023-04-01T17:24:38;9.35;;;4.13;;
61840;SDS011;47773;53.174;6.614;2023-04-01T17:33:16;7.75;;;3.65;;
61840;SDS011;47773;53.174;6.614;2023-04-01T17:38:22;9.57;;;4.60;;
61840;SDS011;47773;53.174;6.614;2023-04-01T18:08:46;8.60;;;3.80;;
61840;SDS011;47773;53.174;6.614;2023-04-01T18:11:54;9.63;;;3.60;;
61840;SDS011;47773;53.174;6.614;2023-04-01T18:15:01;7.07;;;3.58;;
61840;SDS011;47773;53.174;6.614;2023-04-01T18:30:56;11.95;;;4.57;;
61840;SDS011;47773;53.174;6.614;2023-04-01T18:36:32;8.43;;;4.55;;
61840;SDS011;47773;53.174;6.614;2023-04-01T18:39:15;12.27;;;5.30;;
61840;SDS011;47773;53.174;6.614;2023-04-01T18:42:00;14.55;;;6.07;;
61840;SDS011;47773;53.174;6.614;2023-04-01T18:44:46;12.77;;;6.03;;
61840;SDS011;47773;53.174;6.614;2023-04-01T18:47:25;10.98;;;5.70;;
61840;SDS011;47773;53.174;6.614;2023-04-01T18:52:43;16.00;;;6.03;;
61840;SDS011;47773;53.174;6.614;2023-04-01T18:57:54;17.05;;;6.20;;
61840;SDS011;47773;53.174;6.614;2023-04-01T19:03:07;11.85;;;5.28;;
61840;SDS011;47773;53.174;6.614;2023-04-01T19:05:51;13.20;;;5.63;;
61840;SDS011;47773;53.174;6.614;2023-04-01T19:16:48;14.50;;;5.65;;
61840;SDS011;47773;53.174;6.614;2023-04-01T19:19:29;14.90;;;5.72;;
61840;SDS011;47773;53.174;6.614;2023-04-01T19:21:58;11.25;;;5.72;;
61840;SDS011;47773;53.174;6.614;2023-04-01T19:27:18;8.98;;;5.43;;
61840;SDS011;47773;53.174;6.614;2023-04-01T19:38:12;13.75;;;6.03;;
61840;SDS011;47773;53.174;6.614;2023-04-01T19:44:15;11.25;;;5.38;;
61840;SDS011;47773;53.174;6.614;2023-04-01T19:46:56;15.10;;;7.75;;
61840;SDS011;47773;53.174;6.614;2023-04-01T19:52:32;11.73;;;6.30;;
61840;SDS011;47773;53.174;6.614;2023-04-01T19:55:08;11.52;;;6.10;;
61840;SDS011;47773;53.174;6.614;2023-04-01T19:58:02;12.05;;;5.53;;
61840;SDS011;47773;53.174;6.614;2023-04-01T20:03:05;14.35;;;5.45;;
61840;SDS011;47773;53.174;6.614;2023-04-01T20:06:20;12.35;;;5.10;;
61840;SDS011;47773;53.174;6.614;2023-04-01T20:14:51;16.63;;;4.90;;
61840;SDS011;47773;53.174;6.614;2023-04-01T20:17:32;9.80;;;4.85;;
61840;SDS011;47773;53.174;6.614;2023-04-01T20:28:14;13.23;;;4.63;;
61840;SDS011;47773;53.174;6.614;2023-04-01T20:33:50;10.05;;;4.97;;
61840;SDS011;47773;53.174;6.614;2023-04-01T20:37:10;9.30;;;4.50;;
61840;SDS011;47773;53.174;6.614;2023-04-01T20:45:42;11.65;;;4.28;;
61840;SDS011;47773;53.174;6.614;2023-04-01T20:51:23;10.65;;;4.75;;
61840;SDS011;47773;53.174;6.614;2023-04-01T20:59:35;10.88;;;4.28;;
61840;SDS011;47773;53.174;6.614;2023-04-01T21:10:38;12.82;;;4.63;;
61840;SDS011;47773;53.174;6.614;2023-04-01T21:13:27;8.57;;;4.55;;
61840;SDS011;47773;53.174;6.614;2023-04-01T21:16:07;11.15;;;4.50;;
61840;SDS011;47773;53.174;6.614;2023-04-01T21:27:26;10.45;;;4.65;;
61840;SDS011;47773;53.174;6.614;2023-04-01T21:42:00;17.38;;;4.85;;
61840;SDS011;47773;53.174;6.614;2023-04-01T22:04:56;13.98;;;4.45;;
61840;SDS011;47773;53.174;6.614;2023-04-01T22:07:39;9.40;;;4.38;;
61840;SDS011;47773;53.174;6.614;2023-04-01T22:13:01;9.48;;;4.43;;
61840;SDS011;47773;53.174;6.614;2023-04-01T22:16:08;9.38;;;4.03;;
61840;SDS011;47773;53.174;6.614;2023-04-01T22:18:43;9.40;;;4.25;;
61840;SDS011;47773;53.174;6.614;2023-04-01T22:21:23;10.82;;;3.97;;
61840;SDS011;47773;53.174;6.614;2023-04-01T22:24:04;8.15;;;4.10;;
61840;SDS011;47773;53.174;6.614;2023-04-01T22:29:19;10.25;;;4.35;;
61840;SDS011;47773;53.174;6.614;2023-04-01T22:32:04;8.25;;;3.78;;
61840;SDS011;47773;53.174;6.614;2023-04-01T22:50:33;7.38;;;3.90;;
61840;SDS011;47773;53.174;6.614;2023-04-01T22:53:25;13.20;;;4.13;;
61840;SDS011;47773;53.174;6.614;2023-04-01T22:56:18;12.07;;;4.50;;
61840;SDS011;47773;53.174;6.614;2023-04-01T22:59:31;6.50;;;3.83;;
61840;SDS011;47773;53.174;6.614;2023-04-01T23:02:09;12.10;;;4.32;;
61840;SDS011;47773;53.174;6.614;2023-04-01T23:04:43;6.65;;;4.07;;
61840;SDS011;47773;53.174;6.614;2023-04-01T23:07:36;9.20;;;4.32;;
61840;SDS011;47773;53.174;6.614;2023-04-01T23:09:58;11.70;;;4.32;;
61840;SDS011;47773;53.174;6.614;2023-04-01T23:12:26;9.63;;;4.18;;
61840;SDS011;47773;53.174;6.614;2023-04-01T23:14:56;7.82;;;4.25;;
61840;SDS011;47773;53.174;6.614;2023-04-01T23:17:37;10.85;;;4.22;;
61840;SDS011;47773;53.174;6.614;2023-04-01T23:28:48;9.23;;;4.03;;
61840;SDS011;47773;53.174;6.614;2023-04-01T23:34:00;12.88;;;4.45;;
61840;SDS011;47773;53.174;6.614;2023-04-01T23:36:49;8.02;;;3.95;;
61840;SDS011;47773;53.174;6.614;2023-04-01T23:42:23;11.32;;;3.80;;
61840;SDS011;47773;53.174;6.614;2023-04-01T23:45:13;7.35;;;3.88;;
61840;SDS011;47773;53.174;6.614;2023-04-01T23:47:45;11.70;;;3.22;;
61840;SDS011;47773;53.174;6.614;2023-04-01T23:50:16;8.27;;;3.60;;
61840;SDS011;47773;53.174;6.614;2023-04-01T23:52:48;10.93;;;3.42;;
61840;SDS011;47773;53.174;6.614;2023-04-01T23:55:27;10.70;;;3.55;;
